Terminal Aerodrome Forecast
Issued by NWS Charleston, SC

Home | Current Version | Previous Version | Text Only | Print | Product List | Glossary On
Versions: 1 2 3 4 5 6 7 8 9 10 11 12 13 14 15 16 17 18 19 20
524
FTUS42 KCHS 202336
TAFCHS
TAF
KCHS 202336Z 2100/2124 19004KT P6SM FEW200
     FM211500 23005KT P6SM SCT040
     FM211800 18007KT P6SM BKN045=

USA.gov is the U.S. government's official web portal to all federal, state and local government web resources and services.